createdAt,value
2023-07-22T00:00:58.737Z,0
2023-07-22T00:03:57.992Z,2
2023-07-22T00:06:57.507Z,0.3333333333333333
2023-07-22T00:09:57.876Z,0.3333333333333333
2023-07-22T00:12:57.402Z,0
2023-07-22T00:15:57.746Z,0.6666666666666666
2023-07-22T00:18:56.790Z,0
2023-07-22T00:21:57.353Z,0
2023-07-22T00:24:57.020Z,0
2023-07-22T00:27:57.182Z,0.3333333333333333
2023-07-22T00:30:58.314Z,0
2023-07-22T00:33:56.729Z,0.3333333333333333
2023-07-22T00:36:58.025Z,0
2023-07-22T00:39:56.982Z,0
2023-07-22T00:42:57.234Z,0
2023-07-22T00:45:57.219Z,1
2023-07-22T00:48:57.027Z,0
2023-07-22T00:51:57.260Z,0.3333333333333333
2023-07-22T00:54:57.655Z,0
2023-07-22T00:57:57.223Z,0.3333333333333333
2023-07-22T01:00:57.725Z,0
2023-07-22T01:03:57.687Z,0.6666666666666666
2023-07-22T01:06:56.904Z,0
2023-07-22T01:09:58.072Z,1
2023-07-22T01:12:57.767Z,0
2023-07-22T01:15:56.992Z,0.3333333333333333
2023-07-22T01:18:57.346Z,0
2023-07-22T01:21:57.894Z,0
2023-07-22T01:24:57.027Z,0
2023-07-22T01:27:57.353Z,0
2023-07-22T01:30:57.392Z,0.3333333333333333
2023-07-22T01:33:57.490Z,0
2023-07-22T01:36:57.627Z,2.6666666666666665
2023-07-22T01:39:56.979Z,0
2023-07-22T01:42:57.573Z,0.3333333333333333
2023-07-22T01:45:57.745Z,0
2023-07-22T01:48:57.030Z,0
2023-07-22T01:51:56.962Z,0
2023-07-22T01:54:56.500Z,0
2023-07-22T01:57:56.779Z,0
2023-07-22T02:00:57.357Z,1
2023-07-22T02:03:57.486Z,0
2023-07-22T02:06:56.789Z,0
2023-07-22T02:09:57.916Z,1
2023-07-22T02:12:57.066Z,0
2023-07-22T02:15:57.384Z,0
2023-07-22T02:18:57.231Z,0
2023-07-22T02:21:57.413Z,1.3333333333333333
2023-07-22T02:24:58.089Z,0
2023-07-22T02:27:57.615Z,0
2023-07-22T02:30:57.707Z,0
2023-07-22T02:33:57.769Z,0
2023-07-22T02:36:57.720Z,0
2023-07-22T02:39:57.097Z,0
2023-07-22T02:42:57.037Z,0
2023-07-22T02:45:57.675Z,0.6666666666666666
2023-07-22T02:48:57.222Z,0
2023-07-22T02:51:57.800Z,0
2023-07-22T02:54:57.484Z,0
2023-07-22T02:57:57.472Z,0.3333333333333333
2023-07-22T03:00:57.552Z,0.3333333333333333
2023-07-22T03:03:57.533Z,0
2023-07-22T03:06:57.982Z,0
2023-07-22T03:09:57.635Z,0
2023-07-22T03:12:57.389Z,0.3333333333333333
2023-07-22T03:15:57.927Z,1
2023-07-22T03:18:57.465Z,2.6666666666666665
2023-07-22T03:21:57.046Z,5.333333333333333
2023-07-22T03:24:56.923Z,4.666666666666667
2023-07-22T03:27:57.131Z,7
2023-07-22T03:30:57.135Z,9
2023-07-22T03:33:57.116Z,13.333333333333334
2023-07-22T03:36:58.081Z,18
2023-07-22T03:39:57.812Z,21.666666666666668
2023-07-22T03:42:57.166Z,25
2023-07-22T03:45:57.563Z,33.333333333333336
2023-07-22T03:48:57.557Z,43.333333333333336
2023-07-22T03:51:57.566Z,54
2023-07-22T03:54:57.808Z,64.33333333333333
2023-07-22T03:57:57.175Z,74.33333333333333
2023-07-22T04:00:58.110Z,87
2023-07-22T04:03:57.878Z,97.66666666666667
2023-07-22T04:06:57.307Z,113.33333333333333
2023-07-22T04:09:57.708Z,140
2023-07-22T04:12:57.340Z,168
2023-07-22T04:15:57.852Z,183
2023-07-22T04:18:58.056Z,193.33333333333334
2023-07-22T04:21:57.453Z,186
2023-07-22T04:24:57.369Z,182.66666666666666
2023-07-22T04:27:56.866Z,188
2023-07-22T04:30:57.933Z,199
2023-07-22T04:33:57.186Z,209
2023-07-22T04:36:57.591Z,232
2023-07-22T04:39:57.057Z,258
2023-07-22T04:42:58.021Z,276.3333333333333
2023-07-22T04:45:57.079Z,297
2023-07-22T04:48:57.046Z,318
2023-07-22T04:51:57.928Z,332.6666666666667
2023-07-22T04:54:57.182Z,343.3333333333333
2023-07-22T04:57:57.743Z,352
2023-07-22T05:00:57.320Z,357
2023-07-22T05:03:57.827Z,364.3333333333333
2023-07-22T05:06:57.149Z,373
2023-07-22T05:09:57.248Z,382
2023-07-22T05:12:57.436Z,391.3333333333333
2023-07-22T05:15:57.923Z,397
2023-07-22T05:18:57.645Z,401.6666666666667
2023-07-22T05:21:57.597Z,406.3333333333333
2023-07-22T05:24:57.557Z,410.6666666666667
2023-07-22T05:27:56.786Z,414
2023-07-22T05:30:58.234Z,420.6666666666667
2023-07-22T05:33:57.433Z,429.6666666666667
2023-07-22T05:36:57.211Z,436.6666666666667
2023-07-22T05:39:57.205Z,444
2023-07-22T05:42:57.635Z,452.3333333333333
2023-07-22T05:45:57.645Z,460.3333333333333
2023-07-22T05:48:57.170Z,463.3333333333333
2023-07-22T05:51:57.545Z,466
2023-07-22T05:54:57.222Z,464.6666666666667
2023-07-22T05:57:57.202Z,462.6666666666667
2023-07-22T06:00:58.794Z,465
2023-07-22T06:03:57.243Z,471
2023-07-22T06:06:57.078Z,477.6666666666667
2023-07-22T06:09:57.764Z,485.6666666666667
2023-07-22T06:12:57.816Z,490.6666666666667
2023-07-22T06:15:57.715Z,500.6666666666667
2023-07-22T06:18:56.957Z,510.3333333333333
2023-07-22T06:21:57.651Z,518.3333333333334
2023-07-22T06:24:57.460Z,524.6666666666666
2023-07-22T06:27:57.803Z,532
2023-07-22T06:30:58.299Z,540.3333333333334
2023-07-22T06:33:56.688Z,548
2023-07-22T06:36:57.493Z,551.3333333333334
2023-07-22T06:39:57.694Z,555.6666666666666
2023-07-22T06:42:57.585Z,564.6666666666666
2023-07-22T06:45:58.231Z,570.3333333333334
2023-07-22T06:48:57.335Z,573
2023-07-22T06:51:56.872Z,575
2023-07-22T06:54:57.330Z,577.6666666666666
2023-07-22T06:57:57.797Z,581.3333333333334
2023-07-22T07:00:57.617Z,577.6666666666666
2023-07-22T07:03:57.476Z,580.3333333333334
2023-07-22T07:06:57.874Z,588.3333333333334
2023-07-22T07:09:57.134Z,598.6666666666666
2023-07-22T07:12:57.065Z,628.6666666666666
2023-07-22T07:15:57.238Z,669
2023-07-22T07:18:57.108Z,680
2023-07-22T07:21:57.888Z,678
2023-07-22T07:24:57.469Z,679
2023-07-22T07:27:57.884Z,693.3333333333334
2023-07-22T07:30:57.297Z,695.6666666666666
2023-07-22T07:33:57.754Z,660
2023-07-22T07:36:57.010Z,626.3333333333334
2023-07-22T07:40:02.331Z,628
2023-07-22T07:42:57.746Z,622.3333333333334
2023-07-22T07:46:03.117Z,625
2023-07-22T07:48:58.943Z,625.6666666666666
2023-07-22T07:51:57.524Z,630.3333333333334
2023-07-22T07:54:57.519Z,635.6666666666666
2023-07-22T07:57:57.203Z,642
2023-07-22T08:00:57.997Z,641.3333333333334
2023-07-22T08:03:57.860Z,636.3333333333334
2023-07-22T08:06:57.129Z,629
2023-07-22T08:09:56.712Z,616.6666666666666
2023-07-22T08:12:57.445Z,604.3333333333334
2023-07-22T08:15:58.240Z,595.3333333333334
2023-07-22T08:18:57.229Z,585.6666666666666
2023-07-22T08:21:57.700Z,583
2023-07-22T08:24:57.986Z,581.3333333333334
2023-07-22T08:27:57.752Z,586.6666666666666
2023-07-22T08:30:58.119Z,593
2023-07-22T08:33:57.458Z,618.3333333333334
2023-07-22T08:36:57.188Z,633.6666666666666
2023-07-22T08:39:57.627Z,677.6666666666666
2023-07-22T08:42:56.896Z,667.6666666666666
2023-07-22T08:45:57.768Z,665.6666666666666
2023-07-22T08:48:57.703Z,675.3333333333334
2023-07-22T08:51:57.642Z,643.3333333333334
2023-07-22T08:54:57.729Z,680.3333333333334
2023-07-22T08:58:02.846Z,723.3333333333334
2023-07-22T09:00:57.964Z,661.6666666666666
2023-07-22T09:03:57.695Z,682
2023-07-22T09:06:57.102Z,897
2023-07-22T09:09:57.716Z,925.6666666666666
2023-07-22T09:12:57.673Z,703.6666666666666
2023-07-22T09:15:57.565Z,685.3333333333334
2023-07-22T09:18:57.076Z,851
2023-07-22T09:21:57.188Z,772.6666666666666
2023-07-22T09:24:57.748Z,834.6666666666666
2023-07-22T09:27:57.171Z,732
2023-07-22T09:30:58.147Z,802.3333333333334
2023-07-22T09:33:57.239Z,851.6666666666666
2023-07-22T09:36:57.707Z,864.3333333333334
2023-07-22T09:39:57.283Z,830
2023-07-22T09:42:57.023Z,936.6666666666666
2023-07-22T09:45:56.976Z,889.6666666666666
2023-07-22T09:48:57.319Z,827
2023-07-22T09:52:02.589Z,845.3333333333334
2023-07-22T09:54:57.362Z,932.3333333333334
2023-07-22T09:57:57.354Z,851.3333333333334
2023-07-22T10:00:57.899Z,750.6666666666666
2023-07-22T10:03:57.781Z,873.6666666666666
2023-07-22T10:06:57.645Z,802.6666666666666
2023-07-22T10:09:57.021Z,816.3333333333334
2023-07-22T10:12:57.353Z,897.6666666666666
2023-07-22T10:15:57.509Z,759.6666666666666
2023-07-22T10:18:58.534Z,847.6666666666666
2023-07-22T10:21:56.996Z,847.3333333333334
2023-07-22T10:24:57.246Z,902.6666666666666
2023-07-22T10:27:57.593Z,904
2023-07-22T10:30:57.353Z,892
2023-07-22T10:33:57.895Z,904
2023-07-22T10:36:57.304Z,850.6666666666666
2023-07-22T10:39:57.083Z,871
2023-07-22T10:42:57.090Z,944.3333333333334
2023-07-22T10:45:57.091Z,948.6666666666666
2023-07-22T10:48:57.289Z,936
2023-07-22T10:51:57.456Z,856
2023-07-22T10:54:57.412Z,870.3333333333334
2023-07-22T10:57:57.471Z,921
2023-07-22T11:00:57.502Z,842.6666666666666
2023-07-22T11:04:16.033Z,689.3333333333334
2023-07-22T11:06:56.895Z,626
2023-07-22T11:09:57.342Z,667.6666666666666
2023-07-22T11:12:58.503Z,618.6666666666666
2023-07-22T11:15:57.879Z,687.3333333333334
2023-07-22T11:18:57.192Z,714.6666666666666
2023-07-22T11:21:57.586Z,782.3333333333334
2023-07-22T11:24:57.533Z,790.6666666666666
2023-07-22T11:27:58.148Z,800.6666666666666
2023-07-22T11:30:57.770Z,854.3333333333334
2023-07-22T11:33:56.977Z,761
2023-07-22T11:36:57.514Z,639
2023-07-22T11:39:58.016Z,743
2023-07-22T11:42:57.566Z,847
2023-07-22T11:45:57.486Z,910
2023-07-22T11:48:57.965Z,912.3333333333334
2023-07-22T11:51:57.474Z,813.6666666666666
2023-07-22T11:54:57.660Z,882.3333333333334
2023-07-22T11:57:57.083Z,891
2023-07-22T12:01:05.900Z,899.3333333333334
2023-07-22T12:03:57.035Z,892.3333333333334
2023-07-22T12:06:57.863Z,754.3333333333334
2023-07-22T12:09:57.013Z,687.3333333333334
2023-07-22T12:12:56.993Z,675
2023-07-22T12:15:57.148Z,516
2023-07-22T12:18:58.238Z,525.3333333333334
2023-07-22T12:21:57.797Z,545
2023-07-22T12:24:57.442Z,445.6666666666667
2023-07-22T12:27:57.875Z,578
2023-07-22T12:30:57.412Z,533.6666666666666
2023-07-22T12:33:57.502Z,730.3333333333334
2023-07-22T12:36:57.578Z,742.3333333333334
2023-07-22T12:39:57.853Z,753.6666666666666
2023-07-22T12:42:57.586Z,765.6666666666666
2023-07-22T12:45:58.026Z,749.6666666666666
2023-07-22T12:48:57.187Z,589.6666666666666
2023-07-22T12:51:57.884Z,549.6666666666666
2023-07-22T12:54:57.273Z,558.6666666666666
2023-07-22T12:57:56.900Z,665.6666666666666
2023-07-22T13:00:57.737Z,659.3333333333334
2023-07-22T13:03:57.540Z,646.3333333333334
2023-07-22T13:06:57.356Z,693
2023-07-22T13:09:57.542Z,725.3333333333334
2023-07-22T13:12:57.239Z,928.3333333333334
2023-07-22T13:15:57.398Z,823.3333333333334
2023-07-22T13:18:57.096Z,849.6666666666666
2023-07-22T13:21:56.931Z,786
2023-07-22T13:24:57.008Z,816.3333333333334
2023-07-22T13:27:57.414Z,735
2023-07-22T13:30:58.194Z,649.3333333333334
2023-07-22T13:33:57.593Z,559
2023-07-22T13:36:56.922Z,606
2023-07-22T13:39:57.808Z,590.3333333333334
2023-07-22T13:42:57.385Z,848.3333333333334
2023-07-22T13:45:57.873Z,861
2023-07-22T13:48:57.549Z,808.6666666666666
2023-07-22T13:51:56.848Z,759.6666666666666
2023-07-22T13:54:56.829Z,719.6666666666666
2023-07-22T13:57:57.541Z,754
2023-07-22T14:00:58.662Z,833
2023-07-22T14:03:57.454Z,779.6666666666666
2023-07-22T14:06:57.920Z,768.3333333333334
2023-07-22T14:09:58.016Z,723
2023-07-22T14:12:58.339Z,555
2023-07-22T14:16:05.652Z,492.3333333333333
2023-07-22T14:18:56.542Z,586.6666666666666
2023-07-22T14:21:57.193Z,601
2023-07-22T14:24:58.226Z,867.3333333333334
2023-07-22T14:27:56.952Z,852.6666666666666
2023-07-22T14:30:57.704Z,760
2023-07-22T14:33:57.583Z,708.3333333333334
2023-07-22T14:36:57.579Z,507.3333333333333
2023-07-22T14:39:57.897Z,453.3333333333333
2023-07-22T14:42:57.811Z,542.6666666666666
2023-07-22T14:45:57.684Z,576.3333333333334
2023-07-22T14:48:57.264Z,613.3333333333334
2023-07-22T14:51:57.232Z,647.3333333333334
2023-07-22T14:54:57.331Z,622.6666666666666
2023-07-22T14:57:57.150Z,596.3333333333334
2023-07-22T15:00:59.382Z,566
2023-07-22T15:03:56.997Z,524.3333333333334
2023-07-22T15:06:57.673Z,512.6666666666666
2023-07-22T15:09:58.477Z,555
2023-07-22T15:12:57.666Z,652.3333333333334
2023-07-22T15:15:56.994Z,612.6666666666666
2023-07-22T15:18:57.427Z,762
2023-07-22T15:21:57.625Z,689.6666666666666
2023-07-22T15:24:57.069Z,591.6666666666666
2023-07-22T15:27:57.606Z,592.6666666666666
2023-07-22T15:30:57.365Z,635
2023-07-22T15:33:57.560Z,683.3333333333334
2023-07-22T15:36:57.641Z,665.3333333333334
2023-07-22T15:39:58.132Z,614
2023-07-22T15:42:57.147Z,501
2023-07-22T15:45:57.426Z,545
2023-07-22T15:48:57.092Z,584.3333333333334
2023-07-22T15:51:56.853Z,586
2023-07-22T15:54:57.756Z,591.3333333333334
2023-07-22T15:57:56.972Z,556.3333333333334
2023-07-22T16:00:58.168Z,472.6666666666667
2023-07-22T16:03:57.866Z,437
2023-07-22T16:06:57.525Z,476
2023-07-22T16:09:56.855Z,493.3333333333333
2023-07-22T16:12:57.095Z,546.6666666666666
2023-07-22T16:15:57.936Z,562
2023-07-22T16:18:57.632Z,584
2023-07-22T16:21:57.295Z,594.6666666666666
2023-07-22T16:24:57.998Z,564.3333333333334
2023-07-22T16:27:57.733Z,469.6666666666667
2023-07-22T16:30:58.230Z,399.3333333333333
2023-07-22T16:33:57.369Z,385
2023-07-22T16:36:57.246Z,362
2023-07-22T16:39:57.470Z,434
2023-07-22T16:42:57.133Z,481.6666666666667
2023-07-22T16:45:57.499Z,441
2023-07-22T16:48:57.878Z,408.3333333333333
2023-07-22T16:51:57.079Z,376
2023-07-22T16:54:57.366Z,365.3333333333333
2023-07-22T16:57:57.634Z,354
2023-07-22T17:00:57.661Z,336
2023-07-22T17:03:57.159Z,337
2023-07-22T17:07:00.183Z,336.6666666666667
2023-07-22T17:09:57.980Z,296
2023-07-22T17:12:57.236Z,291
2023-07-22T17:15:57.770Z,277.3333333333333
2023-07-22T17:18:57.900Z,262.6666666666667
2023-07-22T17:21:57.622Z,258
2023-07-22T17:24:57.719Z,304.3333333333333
2023-07-22T17:27:57.416Z,297
2023-07-22T17:30:57.462Z,301.6666666666667
2023-07-22T17:33:57.330Z,325.6666666666667
2023-07-22T17:36:57.170Z,283.6666666666667
2023-07-22T17:39:57.533Z,267.6666666666667
2023-07-22T17:42:57.452Z,262
2023-07-22T17:45:57.997Z,253
2023-07-22T17:48:57.473Z,239
2023-07-22T17:51:57.503Z,226.33333333333334
2023-07-22T17:54:57.140Z,221.33333333333334
2023-07-22T17:57:57.812Z,219.66666666666666
2023-07-22T18:00:58.062Z,218.66666666666666
2023-07-22T18:03:57.781Z,215
2023-07-22T18:06:57.350Z,214
2023-07-22T18:09:57.826Z,210.33333333333334
2023-07-22T18:12:57.853Z,201.33333333333334
2023-07-22T18:15:57.913Z,192
2023-07-22T18:18:57.492Z,183
2023-07-22T18:21:57.343Z,175.33333333333334
2023-07-22T18:24:58.305Z,166
2023-07-22T18:27:56.888Z,152.33333333333334
2023-07-22T18:30:57.238Z,140.33333333333334
2023-07-22T18:33:57.515Z,128.66666666666666
2023-07-22T18:36:58.052Z,116.33333333333333
2023-07-22T18:39:57.846Z,108
2023-07-22T18:42:57.126Z,96
2023-07-22T18:45:57.476Z,88.66666666666667
2023-07-22T18:48:57.671Z,83.66666666666667
2023-07-22T18:51:57.065Z,74.33333333333333
2023-07-22T18:54:57.454Z,65
2023-07-22T18:57:57.643Z,54
2023-07-22T19:01:25.702Z,44
2023-07-22T19:03:58.080Z,37
2023-07-22T19:06:58.125Z,28
2023-07-22T19:09:57.846Z,19.333333333333332
2023-07-22T19:12:57.623Z,14.666666666666666
2023-07-22T19:15:57.382Z,10.333333333333334
2023-07-22T19:18:56.893Z,8
2023-07-22T19:21:57.423Z,5.333333333333333
2023-07-22T19:24:57.714Z,4.666666666666667
2023-07-22T19:27:56.959Z,2
2023-07-22T19:30:57.906Z,2
2023-07-22T19:33:57.518Z,1.3333333333333333
2023-07-22T19:36:56.960Z,0.3333333333333333
2023-07-22T19:39:57.394Z,0.3333333333333333
2023-07-22T19:42:57.083Z,0
2023-07-22T19:45:57.837Z,0
2023-07-22T19:48:56.925Z,0
2023-07-22T19:51:56.926Z,1.3333333333333333
2023-07-22T19:54:57.946Z,1
2023-07-22T19:57:57.240Z,0.6666666666666666
2023-07-22T20:00:57.655Z,0
2023-07-22T20:03:58.103Z,0
2023-07-22T20:06:57.279Z,0.3333333333333333
2023-07-22T20:09:57.462Z,1.3333333333333333
2023-07-22T20:12:57.609Z,0.6666666666666666
2023-07-22T20:15:58.261Z,0
2023-07-22T20:18:57.520Z,0
2023-07-22T20:21:57.850Z,1
2023-07-22T20:24:57.427Z,0.6666666666666666
2023-07-22T20:27:57.149Z,0
2023-07-22T20:30:58.455Z,0.3333333333333333
2023-07-22T20:33:56.865Z,0.6666666666666666
2023-07-22T20:36:57.193Z,0
2023-07-22T20:39:57.539Z,0
2023-07-22T20:42:57.669Z,0
2023-07-22T20:45:57.752Z,0
2023-07-22T20:48:57.465Z,0
2023-07-22T20:51:57.628Z,1.3333333333333333
2023-07-22T20:54:57.487Z,0
2023-07-22T20:57:57.429Z,0
2023-07-22T21:00:57.417Z,0
2023-07-22T21:03:56.773Z,0
2023-07-22T21:06:57.421Z,0.3333333333333333
2023-07-22T21:09:57.312Z,0
2023-07-22T21:12:57.670Z,1.6666666666666667
2023-07-22T21:15:57.324Z,1
2023-07-22T21:18:58.141Z,1
2023-07-22T21:21:57.059Z,0
2023-07-22T21:24:57.833Z,1
2023-07-22T21:27:57.269Z,0
2023-07-22T21:30:57.766Z,1.3333333333333333
2023-07-22T21:34:08.761Z,0
2023-07-22T21:36:57.536Z,0
2023-07-22T21:39:58.150Z,0.6666666666666666
2023-07-22T21:42:57.977Z,0
2023-07-22T21:45:57.074Z,2.3333333333333335
2023-07-22T21:48:57.862Z,0
2023-07-22T21:51:57.120Z,0.6666666666666666
2023-07-22T21:54:57.498Z,2.3333333333333335
2023-07-22T21:57:57.152Z,0
2023-07-22T22:00:58.001Z,0
2023-07-22T22:03:57.668Z,0
2023-07-22T22:06:57.247Z,1.3333333333333333
2023-07-22T22:09:57.671Z,0
2023-07-22T22:12:56.641Z,0.3333333333333333
2023-07-22T22:15:57.085Z,0
2023-07-22T22:18:57.430Z,5
2023-07-22T22:21:57.745Z,0.3333333333333333
2023-07-22T22:24:56.675Z,0
2023-07-22T22:27:57.407Z,0
2023-07-22T22:30:57.014Z,0.3333333333333333
2023-07-22T22:33:56.614Z,2.3333333333333335
2023-07-22T22:36:56.880Z,0
2023-07-22T22:39:56.479Z,0
2023-07-22T22:42:57.209Z,0
2023-07-22T22:45:58.201Z,1
2023-07-22T22:48:57.502Z,0
2023-07-22T22:51:57.230Z,0
2023-07-22T22:54:57.270Z,0
2023-07-22T22:57:57.594Z,0
2023-07-22T23:00:58.071Z,0
2023-07-22T23:03:57.538Z,0
2023-07-22T23:06:57.613Z,0
2023-07-22T23:09:57.019Z,0
2023-07-22T23:12:57.834Z,0.3333333333333333
2023-07-22T23:15:57.415Z,0
2023-07-22T23:18:57.283Z,0
2023-07-22T23:21:57.472Z,0.3333333333333333
2023-07-22T23:24:59.508Z,0.3333333333333333
2023-07-22T23:27:57.434Z,0
2023-07-22T23:30:57.468Z,0
2023-07-22T23:33:57.279Z,0.3333333333333333
2023-07-22T23:36:57.681Z,0
2023-07-22T23:39:56.929Z,0
2023-07-22T23:42:57.429Z,0
2023-07-22T23:45:57.981Z,0
2023-07-22T23:48:56.573Z,0.3333333333333333
2023-07-22T23:51:57.573Z,0
2023-07-22T23:54:58.074Z,0
2023-07-22T23:57:57.240Z,0
